createdAt,value
2018-05-04T00:01:45.901Z,15.40
2018-05-04T00:04:18.502Z,15.40
2018-05-04T00:06:50.947Z,15.30
2018-05-04T00:09:24.740Z,15.20
2018-05-04T00:11:57.664Z,15.20
2018-05-04T00:14:30.178Z,15.20
2018-05-04T00:17:02.693Z,15.20
2018-05-04T00:19:35.393Z,15.20
2018-05-04T00:22:08.950Z,15.20
2018-05-04T00:24:41.495Z,15.20
2018-05-04T00:27:15.249Z,15.20
2018-05-04T00:29:48.661Z,15.10
2018-05-04T00:32:22.172Z,15.10
2018-05-04T00:34:54.914Z,15.10
2018-05-04T00:37:28.383Z,15.10
2018-05-04T00:40:01.614Z,15.10
2018-05-04T00:42:34.514Z,15.10
2018-05-04T00:45:07.765Z,15.00
2018-05-04T00:47:40.437Z,15.00
2018-05-04T00:50:13.555Z,15.00
2018-05-04T00:52:46.287Z,14.90
2018-05-04T00:55:19.610Z,14.90
2018-05-04T00:57:52.965Z,14.90
2018-05-04T01:00:25.267Z,14.80
2018-05-04T01:02:57.693Z,14.80
2018-05-04T01:05:30.015Z,14.80
2018-05-04T01:08:02.528Z,14.80
2018-05-04T01:10:35.876Z,14.70
2018-05-04T01:13:08.573Z,14.70
2018-05-04T01:15:41.456Z,14.70
2018-05-04T01:18:14.091Z,14.70
2018-05-04T01:20:46.543Z,14.70
2018-05-04T01:23:19.878Z,14.60
2018-05-04T01:25:53.389Z,14.60
2018-05-04T01:28:26.259Z,14.60
2018-05-04T01:30:58.762Z,14.50
2018-05-04T01:33:32.200Z,14.50
2018-05-04T01:36:05.622Z,14.50
2018-05-04T01:38:38.462Z,14.50
2018-05-04T01:41:10.815Z,14.50
2018-05-04T01:43:43.367Z,14.50
2018-05-04T01:46:16.439Z,14.50
2018-05-04T01:48:49.318Z,14.50
2018-05-04T01:51:23.454Z,14.40
2018-05-04T01:53:57.005Z,14.50
2018-05-04T01:56:30.320Z,14.50
2018-05-04T01:59:03.058Z,14.50
2018-05-04T02:01:35.477Z,14.50
2018-05-04T02:04:08.038Z,14.50
2018-05-04T02:06:41.387Z,14.40
2018-05-04T02:09:14.781Z,14.40
2018-05-04T02:11:48.179Z,14.40
2018-05-04T02:14:21.799Z,14.30
2018-05-04T02:16:54.544Z,14.30
2018-05-04T02:19:27.817Z,14.30
2018-05-04T02:22:01.130Z,14.20
2018-05-04T02:24:34.224Z,14.20
2018-05-04T02:27:07.302Z,14.20
2018-05-04T02:29:40.772Z,14.20
2018-05-04T02:32:13.393Z,14.20
2018-05-04T02:34:45.941Z,14.20
2018-05-04T02:37:19.140Z,14.20
2018-05-04T02:39:51.921Z,14.20
2018-05-04T02:42:24.425Z,14.20
2018-05-04T02:44:57.065Z,14.10
2018-05-04T02:47:29.609Z,14.10
2018-05-04T02:50:02.025Z,14.10
2018-05-04T02:52:34.400Z,14.00
2018-05-04T02:55:06.930Z,14.10
2018-05-04T02:57:39.279Z,14.10
2018-05-04T03:00:12.757Z,14.10
2018-05-04T03:02:45.205Z,14.00
2018-05-04T03:05:17.868Z,14.10
2018-05-04T03:07:51.181Z,14.10
2018-05-04T03:10:23.554Z,14.00
2018-05-04T03:12:56.789Z,14.00
2018-05-04T03:15:29.558Z,14.00
2018-05-04T03:18:03.637Z,14.00
2018-05-04T03:20:36.303Z,14.00
2018-05-04T03:23:08.923Z,14.00
2018-05-04T03:25:42.924Z,14.00
2018-05-04T03:28:16.709Z,14.00
2018-05-04T03:30:49.541Z,14.00
2018-05-04T03:33:22.875Z,14.00
2018-05-04T03:35:56.305Z,14.00
2018-05-04T03:38:29.285Z,14.00
2018-05-04T03:41:02.340Z,14.00
2018-05-04T03:43:35.605Z,14.00
2018-05-04T03:46:08.100Z,14.00
2018-05-04T03:48:40.577Z,13.90
2018-05-04T03:51:13.974Z,14.00
2018-05-04T03:53:47.263Z,14.00
2018-05-04T03:56:19.985Z,13.90
2018-05-04T03:59:11.139Z,13.90
2018-05-04T04:02:02.795Z,13.90
2018-05-04T04:04:37.329Z,13.90
2018-05-04T04:07:11.267Z,13.90
2018-05-04T04:09:44.883Z,13.90
2018-05-04T04:12:18.261Z,13.90
2018-05-04T04:14:50.851Z,13.90
2018-05-04T04:17:23.487Z,13.90
2018-05-04T04:19:55.935Z,13.90
2018-05-04T04:22:29.283Z,13.90
2018-05-04T04:25:01.894Z,13.90
2018-05-04T04:27:34.385Z,13.90
2018-05-04T04:30:06.943Z,13.90
2018-05-04T04:32:39.403Z,13.90
2018-05-04T04:35:11.818Z,13.90
2018-05-04T04:37:44.267Z,13.80
2018-05-04T04:40:16.710Z,13.80
2018-05-04T04:42:49.187Z,13.90
2018-05-04T04:45:21.710Z,13.90
2018-05-04T04:47:54.128Z,13.90
2018-05-04T04:50:26.656Z,14.00
2018-05-04T04:52:59.386Z,14.10
2018-05-04T04:55:32.557Z,14.10
2018-05-04T04:58:06.394Z,14.10
2018-05-04T05:00:39.045Z,14.10
2018-05-04T05:03:12.150Z,14.10
2018-05-04T05:05:45.030Z,14.10
2018-05-04T05:08:17.564Z,14.10
2018-05-04T05:10:50.060Z,14.10
2018-05-04T05:13:23.300Z,14.10
2018-05-04T05:15:55.945Z,14.10
2018-05-04T05:18:28.423Z,14.10
2018-05-04T05:21:00.851Z,14.10
2018-05-04T05:23:35.922Z,14.10
2018-05-04T05:26:09.233Z,14.10
2018-05-04T05:28:42.076Z,14.10
2018-05-04T05:31:14.671Z,14.10
2018-05-04T05:33:47.263Z,14.00
2018-05-04T05:36:19.614Z,14.10
2018-05-04T05:38:52.149Z,14.20
2018-05-04T05:41:24.607Z,14.20
2018-05-04T05:43:57.156Z,14.30
2018-05-04T05:46:30.343Z,14.30
2018-05-04T05:49:02.973Z,14.30
2018-05-04T05:51:36.279Z,14.50
2018-05-04T05:54:09.071Z,14.50
2018-05-04T05:56:42.651Z,14.70
2018-05-04T05:59:16.077Z,14.80
2018-05-04T06:01:49.396Z,14.80
2018-05-04T06:04:23.464Z,14.80
2018-05-04T06:06:56.129Z,14.80
2018-05-04T06:09:28.678Z,14.90
2018-05-04T06:12:01.803Z,15.10
2018-05-04T06:14:34.792Z,15.10
2018-05-04T06:17:07.995Z,15.00
2018-05-04T06:19:40.878Z,15.00
2018-05-04T06:22:14.384Z,14.90
2018-05-04T06:24:47.322Z,14.90
2018-05-04T06:27:19.692Z,14.90
2018-05-04T06:29:52.275Z,14.80
2018-05-04T06:32:25.588Z,14.80
2018-05-04T06:34:58.962Z,14.70
2018-05-04T06:37:32.183Z,14.80
2018-05-04T06:40:04.967Z,14.70
2018-05-04T06:42:37.460Z,14.80
2018-05-04T06:45:10.086Z,14.80
2018-05-04T06:47:43.377Z,14.80
2018-05-04T06:50:16.747Z,14.80
2018-05-04T06:52:50.026Z,14.80
2018-05-04T06:55:22.654Z,14.80
2018-05-04T06:57:55.329Z,14.80
2018-05-04T07:00:28.554Z,14.80
2018-05-04T07:03:00.884Z,14.80
2018-05-04T07:05:33.324Z,14.80
2018-05-04T07:08:06.602Z,14.80
2018-05-04T07:10:39.466Z,14.80
2018-05-04T07:13:13.360Z,14.90
2018-05-04T07:15:45.946Z,14.90
2018-05-04T07:18:19.154Z,15.10
2018-05-04T07:20:51.963Z,15.10
2018-05-04T07:23:24.483Z,15.20
2018-05-04T07:25:56.908Z,15.30
2018-05-04T07:28:29.465Z,15.30
2018-05-04T07:31:02.218Z,15.30
2018-05-04T07:33:34.597Z,15.40
2018-05-04T07:36:07.126Z,15.40
2018-05-04T07:38:39.534Z,15.40
2018-05-04T07:41:12.143Z,15.50
2018-05-04T07:43:44.807Z,15.50
2018-05-04T07:46:18.361Z,15.50
2018-05-04T07:48:51.750Z,15.60
2018-05-04T07:51:25.027Z,15.60
2018-05-04T07:53:57.687Z,15.60
2018-05-04T07:56:36.299Z,15.60
2018-05-04T07:59:09.622Z,15.60
2018-05-04T08:01:42.133Z,15.60
2018-05-04T08:04:14.612Z,15.50
2018-05-04T08:06:46.921Z,15.50
2018-05-04T08:09:19.481Z,15.50
2018-05-04T08:11:52.021Z,15.50
2018-05-04T08:14:24.449Z,15.50
2018-05-04T08:16:56.957Z,15.50
2018-05-04T08:19:30.384Z,15.50
2018-05-04T08:22:03.529Z,15.50
2018-05-04T08:24:37.585Z,15.40
2018-05-04T08:27:10.640Z,15.40
2018-05-04T08:29:43.988Z,15.40
2018-05-04T08:32:17.500Z,15.40
2018-05-04T08:34:50.134Z,15.40
2018-05-04T08:37:22.576Z,15.40
2018-05-04T08:39:55.939Z,15.40
2018-05-04T08:42:29.661Z,15.40
2018-05-04T08:45:02.418Z,15.40
2018-05-04T08:47:34.851Z,15.50
2018-05-04T08:50:08.040Z,15.50
2018-05-04T08:52:40.436Z,15.50
2018-05-04T08:55:13.672Z,15.50
2018-05-04T08:57:46.443Z,15.50
2018-05-04T09:00:20.594Z,15.50
2018-05-04T09:02:54.141Z,15.60
2018-05-04T09:05:26.847Z,15.60
2018-05-04T09:07:59.372Z,15.60
2018-05-04T09:10:33.435Z,15.60
2018-05-04T09:13:07.010Z,15.60
2018-05-04T09:15:39.698Z,15.60
2018-05-04T09:18:12.988Z,15.60
2018-05-04T09:20:45.883Z,15.60
2018-05-04T09:23:19.290Z,15.60
2018-05-04T09:25:52.477Z,15.60
2018-05-04T09:28:25.774Z,15.70
2018-05-04T09:30:58.336Z,15.70
2018-05-04T09:33:30.775Z,15.70
2018-05-04T09:36:03.192Z,15.60
2018-05-04T09:38:35.775Z,15.60
2018-05-04T09:41:08.297Z,15.60
2018-05-04T09:43:40.972Z,15.60
2018-05-04T09:46:13.553Z,15.60
2018-05-04T09:48:46.187Z,15.70
2018-05-04T09:51:19.019Z,15.60
2018-05-04T09:53:51.533Z,15.60
2018-05-04T09:56:24.887Z,15.60
2018-05-04T09:58:58.262Z,15.60
2018-05-04T10:01:31.119Z,15.60
2018-05-04T10:04:04.434Z,15.60
2018-05-04T10:06:37.803Z,15.70
2018-05-04T10:09:10.392Z,15.80
2018-05-04T10:11:43.649Z,15.90
2018-05-04T10:14:16.263Z,15.90
2018-05-04T10:16:49.665Z,15.90
2018-05-04T10:19:22.945Z,15.90
2018-05-04T10:21:55.444Z,15.90
2018-05-04T10:24:28.642Z,15.90
2018-05-04T10:27:01.233Z,15.90
2018-05-04T10:29:33.814Z,16.00
2018-05-04T10:32:07.013Z,16.10
2018-05-04T10:34:39.496Z,16.10
2018-05-04T10:37:11.802Z,16.10
2018-05-04T10:39:44.278Z,16.20
2018-05-04T10:42:17.610Z,16.20
2018-05-04T10:44:50.339Z,16.20
2018-05-04T10:47:22.933Z,16.20
2018-05-04T10:49:55.595Z,16.20
2018-05-04T10:52:28.010Z,16.20
2018-05-04T10:55:00.534Z,16.30
2018-05-04T10:57:33.010Z,16.30
2018-05-04T11:00:05.861Z,16.40
2018-05-04T11:02:38.288Z,16.40
2018-05-04T11:05:10.833Z,16.40
2018-05-04T11:07:43.349Z,16.50
2018-05-04T11:10:16.616Z,16.60
2018-05-04T11:12:49.258Z,16.60
2018-05-04T11:15:21.924Z,16.60
2018-05-04T11:17:55.844Z,16.80
2018-05-04T11:20:28.546Z,16.80
2018-05-04T11:23:01.126Z,16.90
2018-05-04T11:25:34.197Z,17.10
2018-05-04T11:28:07.591Z,17.10
2018-05-04T11:30:40.437Z,17.10
2018-05-04T11:33:12.830Z,17.20
2018-05-04T11:35:45.308Z,17.30
2018-05-04T11:38:19.353Z,17.50
2018-05-04T11:40:53.136Z,17.50
2018-05-04T11:43:25.661Z,17.50
2018-05-04T11:45:58.947Z,17.50
2018-05-04T11:48:31.613Z,17.50
2018-05-04T11:51:04.001Z,17.60
2018-05-04T11:53:37.256Z,17.70
2018-05-04T11:56:09.855Z,17.70
2018-05-04T11:58:43.293Z,17.70
2018-05-04T12:01:16.222Z,17.60
2018-05-04T12:03:49.730Z,17.60
2018-05-04T12:06:23.384Z,17.60
2018-05-04T12:08:56.144Z,17.50
2018-05-04T12:11:28.782Z,17.60
2018-05-04T12:14:01.237Z,17.70
2018-05-04T12:16:34.696Z,17.60
2018-05-04T12:19:07.642Z,17.60
2018-05-04T12:21:40.840Z,17.50
2018-05-04T12:24:13.509Z,17.60
2018-05-04T12:26:45.989Z,17.50
2018-05-04T12:29:19.184Z,17.60
2018-05-04T12:31:52.019Z,17.60
2018-05-04T12:34:25.262Z,17.70
2018-05-04T12:36:57.734Z,17.70
2018-05-04T12:39:30.179Z,17.60
2018-05-04T12:42:02.946Z,17.70
2018-05-04T12:44:35.937Z,17.70
2018-05-04T12:47:09.266Z,17.70
2018-05-04T12:49:41.981Z,17.60
2018-05-04T12:52:14.847Z,17.70
2018-05-04T12:54:48.655Z,17.80
2018-05-04T12:57:21.311Z,17.80
2018-05-04T12:59:54.686Z,17.90
2018-05-04T13:02:27.446Z,17.90
2018-05-04T13:05:02.133Z,18.00
2018-05-04T13:07:35.185Z,18.00
2018-05-04T13:10:08.543Z,18.10
2018-05-04T13:12:41.154Z,18.10
2018-05-04T13:15:16.823Z,18.20
2018-05-04T13:17:50.898Z,18.40
2018-05-04T13:20:23.797Z,18.40
2018-05-04T13:22:57.146Z,18.40
2018-05-04T13:25:29.619Z,18.40
2018-05-04T13:28:02.726Z,18.40
2018-05-04T13:30:37.146Z,18.60
2018-05-04T13:33:10.872Z,18.70
2018-05-04T13:35:43.903Z,18.70
2018-05-04T13:38:17.330Z,18.80
2018-05-04T13:40:50.575Z,18.90
2018-05-04T13:43:23.991Z,19.00
2018-05-04T13:45:56.565Z,18.90
2018-05-04T13:48:29.175Z,19.00
2018-05-04T13:51:02.477Z,19.10
2018-05-04T13:53:36.021Z,19.10
2018-05-04T13:56:09.305Z,19.10
2018-05-04T13:58:41.992Z,19.20
2018-05-04T14:01:16.057Z,19.20
2018-05-04T14:03:48.640Z,19.20
2018-05-04T14:06:21.039Z,19.20
2018-05-04T14:08:54.275Z,19.30
2018-05-04T14:11:27.156Z,19.30
2018-05-04T14:14:00.552Z,19.30
2018-05-04T14:16:33.300Z,19.30
2018-05-04T14:19:05.908Z,19.20
2018-05-04T14:21:38.543Z,19.20
2018-05-04T14:24:11.223Z,19.20
2018-05-04T14:26:45.139Z,19.20
2018-05-04T14:29:18.342Z,19.20
2018-05-04T14:31:51.557Z,19.20
2018-05-04T14:34:24.336Z,19.20
2018-05-04T14:36:57.099Z,19.30
2018-05-04T14:39:29.727Z,19.40
2018-05-04T14:42:02.246Z,19.40
2018-05-04T14:44:34.859Z,19.40
2018-05-04T14:47:07.975Z,19.50
2018-05-04T14:49:40.430Z,19.50
2018-05-04T14:52:13.725Z,19.50
2018-05-04T14:54:46.275Z,19.40
2018-05-04T14:57:18.593Z,19.30
2018-05-04T14:59:51.190Z,19.20
2018-05-04T15:02:23.678Z,19.20
2018-05-04T15:04:56.101Z,19.10
2018-05-04T15:07:28.506Z,19.10
2018-05-04T15:10:01.312Z,19.10
2018-05-04T15:12:33.767Z,19.10
2018-05-04T15:15:06.914Z,19.00
2018-05-04T15:17:40.716Z,19.00
2018-05-04T15:20:13.634Z,19.00
2018-05-04T15:22:46.774Z,19.00
2018-05-04T15:25:19.352Z,18.90
2018-05-04T15:27:52.180Z,19.00
2018-05-04T15:30:26.288Z,19.00
2018-05-04T15:32:59.875Z,19.00
2018-05-04T15:35:32.675Z,19.00
2018-05-04T15:38:05.093Z,19.00
2018-05-04T15:40:37.852Z,19.00
2018-05-04T15:43:10.243Z,19.10
2018-05-04T15:45:43.129Z,19.10
2018-05-04T15:48:22.223Z,19.20
2018-05-04T15:51:01.822Z,19.20
2018-05-04T15:53:34.847Z,19.20
2018-05-04T15:56:07.398Z,19.20
2018-05-04T15:58:40.766Z,19.20
2018-05-04T16:01:13.283Z,19.20
2018-05-04T16:03:46.659Z,19.20
2018-05-04T16:06:19.237Z,19.20
2018-05-04T16:08:52.551Z,19.30
2018-05-04T16:11:25.222Z,19.30
2018-05-04T16:14:04.561Z,19.30
2018-05-04T16:16:37.193Z,19.30
2018-05-04T16:19:10.495Z,19.20
2018-05-04T16:21:43.766Z,19.20
2018-05-04T16:24:16.344Z,19.10
2018-05-04T16:26:48.780Z,19.10
2018-05-04T16:29:21.257Z,19.10
2018-05-04T16:31:53.672Z,19.10
2018-05-04T16:34:26.310Z,19.00
2018-05-04T16:36:59.698Z,18.90
2018-05-04T16:39:32.041Z,18.90
2018-05-04T16:42:04.751Z,18.90
2018-05-04T16:44:37.369Z,18.90
2018-05-04T16:47:16.715Z,18.80
2018-05-04T16:49:50.154Z,18.80
2018-05-04T16:52:22.623Z,18.80
2018-05-04T16:54:55.321Z,18.80
2018-05-04T16:57:28.559Z,18.80
2018-05-04T17:00:01.095Z,18.70
2018-05-04T17:02:33.627Z,18.70
2018-05-04T17:05:06.787Z,18.60
2018-05-04T17:07:40.190Z,18.60
2018-05-04T17:10:13.754Z,18.60
2018-05-04T17:12:46.858Z,18.60
2018-05-04T17:15:19.955Z,18.50
2018-05-04T17:17:54.217Z,18.40
2018-05-04T17:20:26.833Z,18.30
2018-05-04T17:23:00.191Z,18.30
2018-05-04T17:25:32.995Z,18.20
2018-05-04T17:28:06.218Z,18.20
2018-05-04T17:30:38.742Z,18.20
2018-05-04T17:33:11.923Z,18.20
2018-05-04T17:35:45.094Z,18.10
2018-05-04T17:38:39.811Z,18.00
2018-05-04T17:41:12.607Z,18.00
2018-05-04T17:43:45.065Z,18.00
2018-05-04T17:46:17.581Z,18.00
2018-05-04T17:48:57.548Z,17.90
2018-05-04T17:51:30.674Z,17.90
2018-05-04T17:54:03.901Z,17.90
2018-05-04T17:56:36.993Z,17.80
2018-05-04T17:59:09.537Z,17.90
2018-05-04T18:01:42.893Z,17.80
2018-05-04T18:04:15.408Z,17.80
2018-05-04T18:06:47.942Z,17.80
2018-05-04T18:09:21.438Z,17.70
2018-05-04T18:11:54.217Z,17.70
2018-05-04T18:14:26.938Z,17.70
2018-05-04T18:16:59.357Z,17.70
2018-05-04T18:19:31.930Z,17.70
2018-05-04T18:22:05.913Z,17.60
2018-05-04T18:24:39.438Z,17.60
2018-05-04T18:27:12.006Z,17.50
2018-05-04T18:29:45.253Z,17.40
2018-05-04T18:32:19.491Z,17.40
2018-05-04T18:34:52.185Z,17.40
2018-05-04T18:37:25.266Z,17.30
2018-05-04T18:39:58.081Z,17.30
2018-05-04T18:42:31.449Z,17.20
2018-05-04T18:45:03.963Z,17.20
2018-05-04T18:47:38.016Z,17.10
2018-05-04T18:50:11.982Z,17.10
2018-05-04T18:52:45.183Z,17.10
2018-05-04T18:55:17.923Z,17.10
2018-05-04T18:57:53.303Z,17.00
2018-05-04T19:00:26.098Z,17.00
2018-05-04T19:03:04.775Z,17.00
2018-05-04T19:05:38.187Z,17.00
2018-05-04T19:08:10.921Z,17.00
2018-05-04T19:10:44.797Z,16.90
2018-05-04T19:13:17.429Z,16.90
2018-05-04T19:15:50.105Z,16.90
2018-05-04T19:18:23.406Z,16.90
2018-05-04T19:20:56.239Z,16.90
2018-05-04T19:23:29.411Z,16.90
2018-05-04T19:26:02.346Z,16.90
2018-05-04T19:28:35.709Z,16.80
2018-05-04T19:31:09.850Z,16.90
2018-05-04T19:33:42.234Z,16.80
2018-05-04T19:36:14.988Z,16.80
2018-05-04T19:38:49.035Z,16.80
2018-05-04T19:41:21.650Z,16.80
2018-05-04T19:43:56.686Z,16.80
2018-05-04T19:46:29.712Z,16.80
2018-05-04T19:49:02.779Z,16.80
2018-05-04T19:51:36.125Z,16.80
2018-05-04T19:54:08.709Z,16.80
2018-05-04T19:56:42.107Z,16.80
2018-05-04T19:59:15.469Z,16.80
2018-05-04T20:01:48.895Z,16.90
2018-05-04T20:04:22.491Z,16.80
2018-05-04T20:06:55.039Z,16.80
2018-05-04T20:09:28.302Z,16.80
2018-05-04T20:12:00.822Z,16.80
2018-05-04T20:14:34.791Z,16.80
2018-05-04T20:17:07.765Z,16.80
2018-05-04T20:19:40.393Z,16.80
2018-05-04T20:22:13.880Z,16.80
2018-05-04T20:24:46.304Z,16.80
2018-05-04T20:27:18.840Z,16.70
2018-05-04T20:29:52.531Z,16.70
2018-05-04T20:32:25.610Z,16.70
2018-05-04T20:34:58.961Z,16.60
2018-05-04T20:37:31.584Z,16.60
2018-05-04T20:40:04.697Z,16.60
2018-05-04T20:42:37.373Z,16.50
2018-05-04T20:45:09.769Z,16.50
2018-05-04T20:47:42.236Z,16.50
2018-05-04T20:50:14.803Z,16.50
2018-05-04T20:52:47.342Z,16.50
2018-05-04T20:55:19.733Z,16.40
2018-05-04T20:57:53.993Z,16.40
2018-05-04T21:00:26.576Z,16.30
2018-05-04T21:02:59.061Z,16.30
2018-05-04T21:05:32.315Z,16.30
2018-05-04T21:08:05.071Z,16.30
2018-05-04T21:10:38.171Z,16.30
2018-05-04T21:13:11.894Z,16.20
2018-05-04T21:15:44.622Z,16.20
2018-05-04T21:18:17.856Z,16.20
2018-05-04T21:20:50.401Z,16.20
2018-05-04T21:23:23.025Z,16.20
2018-05-04T21:25:55.388Z,16.20
2018-05-04T21:28:27.993Z,16.20
2018-05-04T21:31:00.472Z,16.20
2018-05-04T21:33:34.021Z,16.20
2018-05-04T21:36:06.473Z,16.20
2018-05-04T21:38:39.727Z,16.20
2018-05-04T21:41:12.720Z,16.20
2018-05-04T21:43:45.337Z,16.20
2018-05-04T21:46:17.760Z,16.20
2018-05-04T21:48:50.496Z,16.20
2018-05-04T21:51:23.151Z,16.20
2018-05-04T21:53:57.180Z,16.20
2018-05-04T21:56:29.759Z,16.10
2018-05-04T21:59:02.252Z,16.20
2018-05-04T22:01:34.542Z,16.20
2018-05-04T22:04:06.886Z,16.10
2018-05-04T22:06:39.449Z,16.20
2018-05-04T22:09:12.543Z,16.20
2018-05-04T22:11:46.201Z,16.20
2018-05-04T22:14:19.418Z,16.10
2018-05-04T22:16:51.990Z,16.10
2018-05-04T22:19:25.290Z,16.10
2018-05-04T22:21:57.948Z,16.10
2018-05-04T22:24:30.617Z,16.10
2018-05-04T22:27:03.910Z,16.10
2018-05-04T22:29:36.782Z,16.10
2018-05-04T22:32:09.954Z,16.10
2018-05-04T22:34:42.512Z,16.10
2018-05-04T22:37:15.826Z,16.20
2018-05-04T22:39:50.281Z,16.20
2018-05-04T22:42:23.085Z,16.20
2018-05-04T22:44:55.598Z,16.20
2018-05-04T22:47:28.825Z,16.20
2018-05-04T22:50:02.593Z,16.20
2018-05-04T22:52:36.716Z,16.10
2018-05-04T22:55:09.707Z,16.20
2018-05-04T22:57:43.363Z,16.20
2018-05-04T23:00:17.683Z,16.20
2018-05-04T23:02:50.415Z,16.20
2018-05-04T23:05:22.993Z,16.20
2018-05-04T23:07:56.142Z,16.20
2018-05-04T23:10:28.817Z,16.20
2018-05-04T23:13:01.327Z,16.20
2018-05-04T23:15:33.776Z,16.20
2018-05-04T23:18:06.160Z,16.20
2018-05-04T23:20:38.783Z,16.20
2018-05-04T23:23:11.155Z,16.20
2018-05-04T23:25:43.686Z,16.20
2018-05-04T23:28:16.107Z,16.20
2018-05-04T23:30:49.471Z,16.10
2018-05-04T23:33:22.163Z,16.10
2018-05-04T23:35:54.564Z,16.20
2018-05-04T23:38:27.064Z,16.20
2018-05-04T23:40:59.607Z,16.20
2018-05-04T23:43:32.866Z,16.10
2018-05-04T23:46:05.741Z,16.10
2018-05-04T23:48:39.026Z,16.10
2018-05-04T23:51:12.550Z,16.10
2018-05-04T23:53:46.093Z,16.10
2018-05-04T23:56:19.862Z,16.00
2018-05-04T23:58:52.568Z,16.00
